Time;durP1;ratioP1;P1;durP2;ratioP2;P2;SDS_P1;SDS_P2;PMS_P1;PMS_P2;Temp;Humidity;BMP_temperature;BMP_pressure;BME280_temperature;BME280_humidity;BME280_pressure;Samples;Min_cycle;Max_cycle;Signal;HPM_P1;HPM_P2
2023/12/29 00:02:53;;;;;;;3.70;0.90;;;;;;;12.39;76.90;100094.50;8367425;28;20265;-54
2023/12/29 00:06:54;;;;;;;9.65;1.45;;;;;;;12.39;76.85;100094.50;8363841;28;20525;-56
2023/12/29 00:10:55;;;;;;;5.60;0.90;;;;;;;12.43;76.74;100106.72;8363586;28;20119;-54
2023/12/29 00:14:55;;;;;;;6.82;1.40;;;;;;;12.42;76.38;100096.03;8344395;28;20045;-54
2023/12/29 00:18:56;;;;;;;4.30;0.93;;;;;;;12.30;77.02;100091.91;8308735;28;20079;-56
2023/12/29 00:22:58;;;;;;;10.18;1.05;;;;;;;12.19;77.76;100082.19;8311016;28;20489;-56
2023/12/29 00:26:59;;;;;;;6.22;1.33;;;;;;;12.17;78.12;100072.53;8344578;28;20534;-54
2023/12/29 00:31:00;;;;;;;5.35;0.73;;;;;;;12.14;78.38;100089.09;8293779;28;20437;-55
2023/12/29 00:35:00;;;;;;;8.55;1.15;;;;;;;12.24;77.85;100076.28;8314210;28;20257;-55
2023/12/29 00:39:01;;;;;;;7.32;1.10;;;;;;;12.31;77.49;100063.78;8311073;28;20052;-55
2023/12/29 00:43:01;;;;;;;4.28;0.98;;;;;;;12.27;77.67;100060.56;8313227;28;20056;-54
2023/12/29 00:47:02;;;;;;;8.40;0.80;;;;;;;12.22;77.94;100060.19;8310796;28;20460;-54
2023/12/29 00:51:03;;;;;;;3.85;0.95;;;;;;;12.24;78.08;100076.28;8313541;28;20103;-56
2023/12/29 00:55:05;;;;;;;7.57;1.42;;;;;;;12.22;78.36;100059.31;8321761;28;20041;-55
2023/12/29 00:59:05;;;;;;;8.52;1.20;;;;;;;12.22;78.72;100059.31;8369401;28;20174;-56
2023/12/29 01:03:06;;;;;;;7.00;1.65;;;;;;;12.31;78.33;100058.34;8366171;28;20048;-56
2023/12/29 01:07:06;;;;;;;7.85;1.20;;;;;;;12.31;78.85;100037.53;8368201;28;20071;-55
2023/12/29 01:11:07;;;;;;;5.10;1.13;;;;;;;12.20;79.33;100036.97;8362042;28;20046;-56
2023/12/29 01:15:08;;;;;;;3.47;0.95;;;;;;;12.23;79.44;100050.19;8353955;28;20036;-54
2023/12/29 01:19:08;;;;;;;7.03;1.58;;;;;;;12.17;79.65;100042.72;8360619;28;20048;-56
2023/12/29 01:23:09;;;;;;;9.13;1.33;;;;;;;12.14;79.89;100024.06;8364988;28;20049;-55
2023/12/29 01:27:09;;;;;;;7.55;1.17;;;;;;;12.11;80.14;100024.41;8363170;28;20798;-56
2023/12/29 01:31:11;;;;;;;6.05;0.82;;;;;;;12.08;80.85;100032.84;8312780;28;20068;-57
2023/12/29 01:35:11;;;;;;;5.85;0.93;;;;;;;12.16;80.12;100044.56;8320088;28;20106;-57
2023/12/29 01:39:12;;;;;;;5.63;1.38;;;;;;;12.18;80.30;100036.28;8313007;28;20192;-57
2023/12/29 01:43:12;;;;;;;7.05;1.58;;;;;;;12.24;80.15;100035.63;8311854;28;20954;-56
2023/12/29 01:47:16;;;;;;;9.73;1.15;;;;;;;12.30;80.16;100046.69;8316470;28;20291;-57
2023/12/29 01:51:18;;;;;;;6.85;1.35;;;;;;;12.30;80.07;100030.41;8313661;28;20046;-57
2023/12/29 01:55:21;;;;;;;8.77;1.40;;;;;;;12.36;79.75;100045.16;8336510;28;20098;-56
2023/12/29 01:59:25;;;;;;;6.70;1.30;;;;;;;12.40;79.22;100036.53;8292848;28;20104;-53
2023/12/29 02:03:26;;;;;;;8.13;1.10;;;;;;;12.47;79.33;100034.03;8256803;28;20037;-55
2023/12/29 02:07:30;;;;;;;8.45;1.35;;;;;;;12.42;79.52;100025.53;8256397;28;20155;-54
2023/12/29 02:11:31;;;;;;;10.15;1.30;;;;;;;12.35;79.75;100013.66;8269805;28;20491;-55
2023/12/29 02:15:31;;;;;;;6.25;1.25;;;;;;;12.39;79.43;100017.72;8272295;28;20791;-54
2023/12/29 02:19:41;;;;;;;10.15;1.63;;;;;;;12.38;79.52;100029.59;8273284;28;20477;-55
2023/12/29 02:23:42;;;;;;;8.73;1.38;;;;;;;12.44;79.30;100018.09;8282553;28;20542;-54
2023/12/29 02:27:52;;;;;;;4.68;1.17;;;;;;;12.37;79.84;100025.16;8327705;28;20149;-54
2023/12/29 02:31:59;;;;;;;7.63;1.13;;;;;;;12.39;79.97;100025.88;8371129;28;20050;-56
2023/12/29 02:36:02;;;;;;;5.60;1.45;;;;;;;12.47;79.44;100015.88;8371173;28;20071;-56
2023/12/29 02:40:03;;;;;;;6.40;1.60;;;;;;;12.47;79.82;100012.34;8370240;28;20041;-56
2023/12/29 02:44:04;;;;;;;6.70;1.30;;;;;;;12.47;80.22;100006.94;8370035;28;20052;-56
2023/12/29 02:48:05;;;;;;;6.15;1.17;;;;;;;12.44;81.07;99999.13;8372448;28;20045;-56
2023/12/29 02:52:05;;;;;;;6.68;0.90;;;;;;;12.48;80.39;99987.78;8369358;28;20108;-54
2023/12/29 02:56:06;;;;;;;8.45;1.23;;;;;;;12.50;80.50;99987.63;8371422;28;20498;-55
2023/12/29 03:00:07;;;;;;;8.65;1.23;;;;;;;12.47;81.08;99993.38;8369124;28;20041;-56
2023/12/29 03:04:08;;;;;;;7.43;1.27;;;;;;;12.58;80.43;99995.75;8372414;28;20037;-54
2023/12/29 03:08:09;;;;;;;7.88;1.00;;;;;;;12.58;80.82;99990.34;8370083;28;20138;-56
2023/12/29 03:12:09;;;;;;;9.55;1.23;;;;;;;12.59;80.67;99981.19;8346910;28;20086;-55
2023/12/29 03:16:10;;;;;;;4.95;1.15;;;;;;;12.59;81.00;99975.78;8372126;28;20127;-56
2023/12/29 03:20:11;;;;;;;6.32;1.20;;;;;;;12.57;81.71;99997.63;8367680;28;20040;-54
2023/12/29 03:24:11;;;;;;;4.97;1.33;;;;;;;12.53;82.05;99987.28;8340688;28;20600;-55
2023/12/29 03:28:12;;;;;;;9.70;0.98;;;;;;;12.56;81.50;99981.53;8314858;28;20439;-54
2023/12/29 03:32:12;;;;;;;4.88;1.00;;;;;;;12.45;81.91;99968.28;8283321;28;20431;-55
2023/12/29 03:36:13;;;;;;;8.70;1.23;;;;;;;12.34;82.47;99971.28;8272135;28;20811;-55
2023/12/29 03:40:15;;;;;;;11.05;1.52;;;;;;;12.26;82.64;99963.16;8272532;28;20041;-53
2023/12/29 03:44:16;;;;;;;8.35;1.60;;;;;;;12.13;83.44;99947.34;8271450;28;20373;-53
2023/12/29 03:48:17;;;;;;;4.20;1.08;;;;;;;12.07;83.25;99949.88;8270634;28;20041;-52
2023/12/29 03:52:17;;;;;;;5.05;0.85;;;;;;;12.12;83.15;99951.06;8288642;28;20304;-54
2023/12/29 03:56:18;;;;;;;4.75;0.80;;;;;;;12.11;83.16;99948.53;8313362;28;20648;-54
2023/12/29 04:00:19;;;;;;;6.80;0.90;;;;;;;12.10;83.78;99953.09;8356474;28;20041;-54
2023/12/29 04:04:19;;;;;;;7.13;1.30;;;;;;;12.15;83.54;99958.88;8366715;28;20045;-53
2023/12/29 04:08:21;;;;;;;3.65;0.75;;;;;;;12.23;83.20;99947.22;8333888;28;20042;-54
2023/12/29 04:12:21;;;;;;;8.40;1.38;;;;;;;12.20;83.17;99948.38;8330833;28;20511;-54
2023/12/29 04:16:22;;;;;;;7.80;0.95;;;;;;;12.24;83.02;99938.91;8334497;28;20406;-54
2023/12/29 04:20:22;;;;;;;7.38;1.42;;;;;;;12.26;83.34;99946.88;8336533;28;20083;-55
2023/12/29 04:24:23;;;;;;;6.22;1.33;;;;;;;12.35;83.31;99963.00;8336915;28;20109;-54
2023/12/29 04:28:23;;;;;;;9.20;1.60;;;;;;;12.44;83.07;99939.47;8336284;28;20045;-53
2023/12/29 04:32:25;;;;;;;8.25;1.15;;;;;;;12.36;84.02;99950.28;8333106;28;20091;-54
2023/12/29 04:36:25;;;;;;;4.88;0.88;;;;;;;12.33;84.47;99948.78;8312320;28;20033;-54
2023/12/29 04:40:26;;;;;;;11.90;1.20;;;;;;;12.36;84.75;99958.44;8339679;28;20037;-54
2023/12/29 04:44:27;;;;;;;6.13;1.40;;;;;;;12.41;84.44;99967.75;8339601;28;20040;-54
2023/12/29 04:48:27;;;;;;;4.80;1.38;;;;;;;12.36;85.02;99963.84;8337873;28;20127;-54
2023/12/29 04:52:28;;;;;;;9.35;1.20;;;;;;;12.45;84.54;99979.13;8305470;28;20037;-57
2023/12/29 04:56:28;;;;;;;3.75;0.77;;;;;;;12.49;83.68;99985.91;8282824;28;20087;-55
2023/12/29 05:00:29;;;;;;;8.10;1.17;;;;;;;12.39;83.70;99968.94;8243590;28;20084;-55
2023/12/29 05:04:29;;;;;;;6.75;1.00;;;;;;;12.27;84.49;99959.41;8238344;28;20453;-55
2023/12/29 05:08:30;;;;;;;6.50;0.95;;;;;;;12.16;84.56;99970.53;8242289;28;20322;-55
2023/12/29 05:12:30;;;;;;;5.93;1.08;;;;;;;12.12;84.60;99977.31;8237735;28;20321;-55
2023/12/29 05:16:31;;;;;;;8.25;1.77;;;;;;;12.08;85.29;99971.41;8230409;28;20516;-55
2023/12/29 05:20:31;;;;;;;8.82;1.45;;;;;;;12.01;85.97;99974.91;8254560;28;20045;-55
2023/12/29 05:24:32;;;;;;;8.65;0.95;;;;;;;11.93;86.45;99977.56;8278368;28;20515;-55
2023/12/29 05:28:32;;;;;;;8.65;1.05;;;;;;;11.88;86.40;99970.78;8313659;28;20078;-56
2023/12/29 05:32:32;;;;;;;6.30;1.45;;;;;;;11.83;86.96;99975.84;8336884;28;20037;-57
2023/12/29 05:36:36;;;;;;;9.52;1.60;;;;;;;11.82;86.58;99971.44;8322574;28;20037;-56
2023/12/29 05:40:36;;;;;;;8.23;1.13;;;;;;;11.90;85.83;99971.47;8330062;28;20037;-56
2023/12/29 05:44:37;;;;;;;6.88;1.02;;;;;;;11.85;86.03;99962.13;8333880;28;20071;-55
2023/12/29 05:48:38;;;;;;;5.13;1.08;;;;;;;11.86;86.25;99978.22;8331093;28;20060;-57
2023/12/29 05:52:39;;;;;;;4.05;0.85;;;;;;;11.82;86.47;99974.16;8318838;28;20039;-57
2023/12/29 05:56:40;;;;;;;6.05;1.10;;;;;;;11.74;86.29;99968.69;8319561;28;20053;-56
2023/12/29 06:00:40;;;;;;;8.45;0.85;;;;;;;11.80;85.53;99978.88;8318654;28;20125;-56
2023/12/29 06:04:41;;;;;;;6.20;1.50;;;;;;;11.79;85.73;99976.31;8315247;28;20041;-56
2023/12/29 06:08:41;;;;;;;6.40;0.85;;;;;;;11.78;85.71;99975.47;8324725;28;20479;-56
2023/12/29 06:12:42;;;;;;;7.90;1.17;;;;;;;11.78;85.32;99980.88;8319494;28;20052;-56
2023/12/29 06:16:43;;;;;;;4.25;0.82;;;;;;;11.80;84.90;99968.03;8317728;28;20049;-56
2023/12/29 06:20:44;;;;;;;7.72;1.25;;;;;;;11.87;84.50;99968.25;8320195;28;20099;-55
2023/12/29 06:24:45;;;;;;;9.23;1.10;;;;;;;11.84;83.92;99974.00;8320449;28;20658;-56
2023/12/29 06:28:46;;;;;;;8.30;0.98;;;;;;;11.81;84.22;99969.72;8299067;28;20654;-54
2023/12/29 06:32:47;;;;;;;9.23;1.08;;;;;;;11.83;84.15;99973.13;8278491;28;20107;-54
2023/12/29 06:36:47;;;;;;;5.97;1.02;;;;;;;11.85;84.02;99971.13;8285264;28;20412;-53
2023/12/29 06:40:47;;;;;;;3.20;0.80;;;;;;;11.96;83.51;99971.84;8279444;28;20041;-54
2023/12/29 06:44:48;;;;;;;7.63;0.80;;;;;;;11.96;83.68;99958.28;8285470;28;20159;-55
2023/12/29 06:48:49;;;;;;;6.63;0.75;;;;;;;11.91;83.86;99964.19;8281386;28;20042;-55
2023/12/29 06:52:50;;;;;;;3.78;0.90;;;;;;;11.88;84.26;99964.53;8282289;28;20049;-55
2023/12/29 06:56:50;;;;;;;3.63;0.90;;;;;;;11.94;83.98;99953.03;8303077;28;20121;-55
2023/12/29 07:00:50;;;;;;;9.27;0.93;;;;;;;11.98;83.95;99948.16;8332052;28;20668;-55
2023/12/29 07:04:51;;;;;;;3.15;0.60;;;;;;;11.98;84.26;99942.72;8367268;28;20302;-56
2023/12/29 07:08:51;;;;;;;7.43;1.33;;;;;;;12.04;84.21;99933.94;8336741;28;20056;-55
2023/12/29 07:12:52;;;;;;;3.42;0.50;;;;;;;12.04;84.04;99928.53;8328611;28;20045;-57
2023/12/29 07:16:53;;;;;;;6.72;0.70;;;;;;;11.97;84.45;99922.06;8335634;28;20044;-56
2023/12/29 07:20:54;;;;;;;7.28;0.70;;;;;;;12.00;84.61;99916.31;8332089;28;20349;-55
2023/12/29 07:24:54;;;;;;;4.47;0.63;;;;;;;12.02;84.48;99928.69;8331705;28;20041;-56
2023/12/29 07:28:56;;;;;;;5.22;1.10;;;;;;;11.98;84.69;99932.72;8363087;28;20545;-56
2023/12/29 07:32:57;;;;;;;8.82;0.90;;;;;;;11.95;85.14;99926.81;8335977;28;20040;-55
2023/12/29 07:36:58;;;;;;;4.18;0.70;;;;;;;11.93;84.87;99945.94;8335030;28;20056;-56
2023/12/29 07:40:58;;;;;;;3.38;0.90;;;;;;;11.99;85.08;99955.25;8332531;28;20389;-56
2023/12/29 07:44:59;;;;;;;5.50;0.90;;;;;;;12.12;84.51;99955.63;8337681;28;20057;-55
2023/12/29 07:48:59;;;;;;;8.10;1.48;;;;;;;12.20;86.20;99947.53;8367929;28;20046;-56
2023/12/29 07:53:02;;;;;;;8.23;0.95;;;;;;;12.16;87.20;99948.88;8337178;28;20041;-55
2023/12/29 07:57:03;;;;;;;8.25;0.80;;;;;;;12.08;88.46;99943.44;8323867;28;20602;-54
2023/12/29 08:01:03;;;;;;;3.28;0.68;;;;;;;12.04;89.70;99959.16;8282649;28;20667;-56
2023/12/29 08:05:04;;;;;;;6.45;1.02;;;;;;;11.98;90.78;99961.69;8323834;28;20480;-55
2023/12/29 08:09:05;;;;;;;4.03;0.75;;;;;;;11.92;92.44;99959.63;8331804;28;20259;-54
2023/12/29 08:13:08;;;;;;;10.13;0.80;;;;;;;11.79;95.08;99958.22;8304094;28;20609;-54
2023/12/29 08:17:09;;;;;;;3.60;0.65;;;;;;;11.65;98.15;99958.81;8314592;28;20042;-56
2023/12/29 08:21:18;;;;;;;6.05;0.63;;;;;;;11.52;100.00;99961.09;8289726;28;20103;-54
2023/12/29 08:25:18;;;;;;;6.85;1.10;;;;;;;11.43;100.00;99962.03;8328411;28;20042;-57
2023/12/29 08:29:19;;;;;;;5.50;0.88;;;;;;;11.36;100.00;99966.41;8328837;28;20045;-55
2023/12/29 08:33:20;;;;;;;4.60;0.68;;;;;;;11.34;100.00;99965.69;8331381;28;20039;-53
2023/12/29 08:37:20;;;;;;;4.53;0.85;;;;;;;11.37;100.00;99972.66;8335107;28;20033;-55
2023/12/29 08:41:20;;;;;;;4.30;1.40;;;;;;;11.38;100.00;99979.78;8324934;28;20092;-57
2023/12/29 08:45:21;;;;;;;6.30;1.25;;;;;;;11.41;100.00;99983.00;8326914;28;20037;-57
2023/12/29 08:49:21;;;;;;;5.50;0.90;;;;;;;11.54;100.00;99978.03;8334644;28;20045;-56
2023/12/29 08:53:22;;;;;;;4.70;0.90;;;;;;;11.64;100.00;99983.34;8333598;28;20032;-54
2023/12/29 08:57:23;;;;;;;4.85;0.85;;;;;;;11.65;100.00;99988.59;8319414;28;20083;-57
2023/12/29 09:01:24;;;;;;;6.05;1.02;;;;;;;11.74;100.00;99989.47;8333012;28;20063;-55
2023/12/29 09:05:24;;;;;;;4.10;0.70;;;;;;;11.74;100.00;99989.47;8326364;28;20038;-55
2023/12/29 09:09:24;;;;;;;3.05;0.63;;;;;;;11.75;100.00;99992.03;8335057;28;20041;-55
2023/12/29 09:13:26;;;;;;;8.73;0.98;;;;;;;11.72;100.00;99997.78;8321925;28;20088;-55
2023/12/29 09:17:27;;;;;;;5.53;1.40;;;;;;;11.60;100.00;99977.38;8327157;28;20810;-55
2023/12/29 09:21:29;;;;;;;1.60;0.47;;;;;;;11.60;100.00;99988.22;8318209;28;20041;-56
2023/12/29 09:25:29;;;;;;;5.40;0.80;;;;;;;11.58;100.00;99984.81;8331544;28;20095;-55
2023/12/29 09:29:29;;;;;;;2.38;0.50;;;;;;;11.58;100.00;99979.41;8331993;28;20350;-56
2023/12/29 09:33:30;;;;;;;3.30;0.68;;;;;;;11.65;100.00;99985.88;8332303;28;20085;-55
2023/12/29 09:37:32;;;;;;;8.60;0.57;;;;;;;11.76;100.00;99991.03;8332860;28;20546;-55
2023/12/29 09:41:34;;;;;;;1.13;0.60;;;;;;;11.87;100.00;99995.34;8341072;28;20392;-56
2023/12/29 09:45:38;;;;;;;4.75;0.60;;;;;;;11.97;100.00;99995.19;8330188;28;20114;-55
2023/12/29 09:49:40;;;;;;;1.75;0.30;;;;;;;12.07;98.43;100001.34;8331765;28;20269;-55
2023/12/29 09:53:41;;;;;;;3.67;0.40;;;;;;;12.13;98.07;99992.56;8324546;28;20041;-55
2023/12/29 09:57:42;;;;;;;2.72;0.40;;;;;;;12.18;97.30;99987.50;8330851;28;20050;-56
2023/12/29 10:01:46;;;;;;;1.58;0.45;;;;;;;12.23;96.62;99990.59;8333028;28;20565;-54
2023/12/29 10:05:51;;;;;;;1.10;0.20;;;;;;;12.36;96.04;99993.66;8330519;28;20045;-55
2023/12/29 10:09:56;;;;;;;5.57;0.68;;;;;;;12.37;96.44;99998.06;8330779;28;20132;-56
2023/12/29 10:13:59;;;;;;;1.77;0.40;;;;;;;12.51;94.49;99995.59;8332180;28;20033;-57
2023/12/29 10:18:39;;;;;;;1.30;0.20;;;;;;;13.03;92.11;100001.63;8301414;28;20047;-56
2023/12/29 10:22:51;;;;;;;2.22;0.57;;;;;;;13.02;90.92;99991.78;8327164;28;20081;-57
2023/12/29 10:26:53;;;;;;;1.90;0.40;;;;;;;13.14;91.45;99985.84;8327840;28;20121;-56
2023/12/29 10:30:54;;;;;;;2.70;0.40;;;;;;;13.13;89.99;99988.72;8332810;28;20056;-54
2023/12/29 10:35:09;;;;;;;1.88;0.25;;;;;;;12.96;91.09;99995.16;8327342;28;20045;-55
2023/12/29 10:39:09;;;;;;;1.88;0.38;;;;;;;12.85;92.29;99984.63;8321525;28;20042;-56
2023/12/29 10:43:10;;;;;;;3.15;0.30;;;;;;;12.82;92.08;99998.50;8336175;28;20052;-57
2023/12/29 10:47:11;;;;;;;1.55;0.50;;;;;;;12.84;92.15;99974.78;8336748;28;20041;-57
2023/12/29 10:51:12;;;;;;;1.90;0.40;;;;;;;12.80;92.79;99978.84;8337301;28;20033;-56
2023/12/29 10:55:13;;;;;;;0.28;0.28;;;;;;;12.82;92.45;99976.81;8337144;28;20037;-57
2023/12/29 10:59:13;;;;;;;2.55;0.30;;;;;;;12.84;92.26;99982.94;8332171;28;20056;-56
2023/12/29 11:03:16;;;;;;;1.58;0.30;;;;;;;12.87;91.09;99974.44;8329479;28;20149;-57
2023/12/29 11:07:31;;;;;;;2.45;0.45;;;;;;;12.91;90.87;99967.66;8318014;28;20038;-56
2023/12/29 11:11:34;;;;;;;7.43;0.73;;;;;;;13.02;90.30;99959.22;8323887;28;20136;-57
2023/12/29 11:15:36;;;;;;;;;;;;;;;13.10;89.66;99970.06;8320063;28;20238;-56
2023/12/29 11:19:38;;;;;;;3.85;0.40;;;;;;;13.18;88.37;99967.38;8319818;28;19921;-55
2023/12/29 11:23:39;;;;;;;2.05;0.38;;;;;;;13.29;87.91;99959.72;8320720;28;20148;-55
2023/12/29 11:27:40;;;;;;;2.35;0.40;;;;;;;13.48;86.88;99958.50;8330046;28;20048;-57
2023/12/29 11:31:41;;;;;;;3.88;0.47;;;;;;;13.55;86.39;99964.94;8333301;28;20119;-57
2023/12/29 11:35:48;;;;;;;2.15;0.50;;;;;;;13.56;85.84;99963.91;8330272;28;20033;-55
2023/12/29 11:39:58;;;;;;;3.15;0.50;;;;;;;13.68;85.76;99965.25;8331521;28;20096;-55
2023/12/29 11:44:00;;;;;;;1.23;0.30;;;;;;;13.72;85.42;99959.28;8326997;28;20041;-55
2023/12/29 11:48:02;;;;;;;0.95;0.30;;;;;;;13.73;85.47;99965.56;8330165;28;20099;-57
2023/12/29 11:52:03;;;;;;;2.20;0.30;;;;;;;13.82;85.79;99951.78;8321170;28;20135;-56
2023/12/29 11:56:15;;;;;;;1.75;0.30;;;;;;;13.84;86.02;99954.31;8319732;28;20262;-54
2023/12/29 12:00:16;;;;;;;1.40;0.30;;;;;;;13.85;85.27;99945.16;8325354;28;20038;-56
2023/12/29 12:04:41;;;;;;;1.17;0.30;;;;;;;13.77;85.83;99940.59;8318646;28;20392;-56
2023/12/29 12:08:41;;;;;;;0.93;0.25;;;;;;;13.77;85.62;99950.63;8315813;28;20073;-56
2023/12/29 12:12:42;;;;;;;1.30;0.30;;;;;;;13.69;85.49;99928.88;8325124;28;20037;-56
2023/12/29 12:21:00;;;;;;;0.35;0.30;;;;;;;13.60;85.98;99940.81;8352471;27;20824;-57
2023/12/29 12:25:03;;;;;;;0.90;0.40;;;;;;;13.60;86.02;99951.66;8331326;28;20468;-54
2023/12/29 12:29:04;;;;;;;0.93;0.22;;;;;;;13.53;86.03;99939.81;8333885;28;20257;-55
2023/12/29 12:33:05;;;;;;;1.20;0.25;;;;;;;13.54;86.07;99947.78;8341866;28;20032;-55
2023/12/29 12:37:07;;;;;;;0.77;0.20;;;;;;;13.54;86.22;99945.06;8344880;28;20041;-55
2023/12/29 12:41:12;;;;;;;2.38;0.30;;;;;;;13.54;86.87;99930.63;8330057;28;20686;-57
2023/12/29 12:45:19;;;;;;;0.55;0.30;;;;;;;13.57;86.85;99930.28;8329139;28;20361;-55
2023/12/29 12:49:21;;;;;;;0.75;0.20;;;;;;;13.61;86.46;99937.09;8350907;28;20067;-55
2023/12/29 12:53:23;;;;;;;0.93;0.20;;;;;;;13.59;86.49;99947.25;8343635;28;20045;-54
2023/12/29 12:57:24;;;;;;;1.10;0.30;;;;;;;13.58;87.22;99934.72;8333503;28;20480;-54
2023/12/29 13:01:25;;;;;;;2.60;0.30;;;;;;;13.46;87.83;99927.97;8359057;28;20458;-55
2023/12/29 13:05:26;;;;;;;0.95;0.20;;;;;;;13.43;87.96;99917.44;8323358;28;20041;-56
2023/12/29 13:09:27;;;;;;;4.00;0.77;;;;;;;13.37;88.75;99923.56;8327223;28;20068;-54
2023/12/29 13:13:42;;;;;;;1.15;0.20;;;;;;;13.36;87.72;99917.28;8323378;28;20573;-55
2023/12/29 13:17:51;;;;;;;1.10;0.20;;;;;;;13.37;87.34;99923.56;8349611;28;20041;-55
2023/12/29 13:21:55;;;;;;;0.82;0.20;;;;;;;13.35;87.36;99910.16;8335881;28;21551;-55
2023/12/29 13:25:59;;;;;;;1.30;0.40;;;;;;;13.31;87.67;99924.25;8330225;28;20091;-56
2023/12/29 13:29:59;;;;;;;2.20;0.15;;;;;;;13.33;87.63;99906.75;8321404;28;20048;-55
2023/12/29 13:34:06;;;;;;;1.80;0.55;;;;;;;13.32;87.77;99904.22;8331130;28;20505;-54
2023/12/29 13:38:28;;;;;;;0.95;0.30;;;;;;;13.29;89.34;99910.00;8315563;28;20029;-55
2023/12/29 13:42:32;;;;;;;2.17;0.25;;;;;;;13.19;91.31;99922.91;8301820;28;20495;-56
2023/12/29 13:46:33;;;;;;;3.33;0.40;;;;;;;12.91;95.32;99932.41;8304783;28;20045;-55
2023/12/29 13:50:35;;;;;;;6.65;0.50;;;;;;;12.49;100.00;99940.66;8306143;28;20042;-54
2023/12/29 13:54:43;;;;;;;2.70;0.40;;;;;;;12.21;100.00;99938.41;8304568;28;20712;-54
2023/12/29 13:58:51;;;;;;;0.45;0.20;;;;;;;12.05;100.00;99924.81;8307082;28;20069;-56
2023/12/29 14:07:09;;;;;;;0.73;0.40;;;;;;;11.97;100.00;99913.94;8333213;27;20782;-55
2023/12/29 14:11:10;;;;;;;0.90;0.60;;;;;;;11.95;100.00;99908.66;8325893;28;21633;-55
2023/12/29 14:15:11;;;;;;;1.20;0.60;;;;;;;12.01;100.00;99909.91;8330097;28;20421;-55
2023/12/29 14:19:11;;;;;;;1.35;0.47;;;;;;;12.03;100.00;99902.44;8332400;28;20551;-53
2023/12/29 14:23:13;;;;;;;1.90;0.43;;;;;;;12.03;100.00;99892.44;8330897;28;20061;-54
2023/12/29 14:27:14;;;;;;;0.75;0.50;;;;;;;12.11;100.00;99894.34;8326947;28;20045;-55
2023/12/29 14:31:15;;;;;;;1.25;0.50;;;;;;;12.13;100.00;99881.50;8329536;28;20527;-55
2023/12/29 14:35:15;;;;;;;1.70;1.33;;;;;;;12.19;100.00;99886.22;8329980;28;20509;-57
2023/12/29 14:39:16;;;;;;;0.20;0.20;;;;;;;12.24;100.00;99867.59;8327860;28;20242;-54
2023/12/29 14:43:16;;;;;;;2.03;0.47;;;;;;;12.37;100.00;99867.94;8330720;28;20499;-56
2023/12/29 14:47:17;;;;;;;0.75;0.40;;;;;;;12.47;99.39;99884.94;8330876;28;20037;-56
2023/12/29 14:51:19;;;;;;;1.05;0.20;;;;;;;12.51;97.83;99887.13;8331217;28;20162;-54
2023/12/29 14:55:20;;;;;;;0.40;0.28;;;;;;;12.51;96.36;99880.84;8330016;28;20041;-55
2023/12/29 14:59:21;;;;;;;0.28;0.20;;;;;;;12.58;95.60;99887.28;8326365;28;20047;-55
2023/12/29 15:03:23;;;;;;;1.00;0.20;;;;;;;12.66;94.21;99879.16;8331754;28;20709;-53
2023/12/29 15:07:29;;;;;;;0.47;0.30;;;;;;;12.75;93.64;99878.16;8312975;28;20161;-53
2023/12/29 15:11:29;;;;;;;1.10;0.10;;;;;;;12.78;94.43;99888.66;8326055;28;20033;-54
2023/12/29 15:15:31;;;;;;;2.38;0.20;;;;;;;12.67;96.97;99883.56;8314728;28;20049;-55
2023/12/29 15:19:31;;;;;;;0.30;0.10;;;;;;;12.58;97.43;99882.72;8308801;28;20041;-55
2023/12/29 15:23:32;;;;;;;0.32;0.20;;;;;;;12.55;98.12;99871.34;8305435;28;20064;-55
2023/12/29 15:27:32;;;;;;;1.55;0.28;;;;;;;12.55;97.72;99882.19;8305987;28;20140;-56
2023/12/29 15:31:33;;;;;;;1.95;0.20;;;;;;;12.60;96.87;99879.84;8306180;28;20038;-55
2023/12/29 15:35:33;;;;;;;1.75;0.40;;;;;;;12.54;98.44;99873.25;8306040;28;20662;-55
2023/12/29 15:39:35;;;;;;;0.55;0.28;;;;;;;12.48;99.05;99881.19;8304534;28;20041;-54
2023/12/29 15:43:35;;;;;;;0.55;0.20;;;;;;;12.43;100.00;99867.28;8307299;28;20369;-56
2023/12/29 15:47:36;;;;;;;1.58;0.20;;;;;;;12.39;100.00;99874.06;8307506;28;20064;-55
2023/12/29 15:51:36;;;;;;;1.60;0.43;;;;;;;12.24;100.00;99862.19;8306239;28;20049;-55
2023/12/29 15:55:37;;;;;;;0.55;0.30;;;;;;;12.16;100.00;99859.44;8308565;28;20334;-55
2023/12/29 15:59:37;;;;;;;1.10;0.32;;;;;;;12.22;100.00;99847.94;8301540;28;20063;-55
2023/12/29 16:03:39;;;;;;;1.05;0.30;;;;;;;12.29;100.00;99843.56;8311484;28;20466;-54
2023/12/29 16:07:39;;;;;;;3.13;0.50;;;;;;;12.36;100.00;99844.59;8305397;28;20072;-57
2023/12/29 16:11:40;;;;;;;2.17;0.25;;;;;;;12.54;96.90;99845.28;8292922;28;20045;-57
2023/12/29 16:15:40;;;;;;;0.30;0.30;;;;;;;12.61;96.86;99838.16;8305950;28;20117;-57
2023/12/29 16:19:41;;;;;;;1.35;0.40;;;;;;;12.55;96.05;99827.97;8305516;28;20115;-56
2023/12/29 16:23:41;;;;;;;0.75;0.30;;;;;;;12.54;95.94;99826.28;8284160;28;20034;-56
2023/12/29 16:27:43;;;;;;;2.45;0.40;;;;;;;12.54;95.38;99827.16;8302961;28;20495;-55
2023/12/29 16:31:43;;;;;;;2.30;0.47;;;;;;;12.57;94.83;99836.78;8301407;28;20521;-56
2023/12/29 16:35:44;;;;;;;4.20;0.60;;;;;;;12.62;93.83;99839.81;8309855;28;20119;-55
2023/12/29 16:39:44;;;;;;;1.80;0.40;;;;;;;12.66;93.71;99830.34;8309543;28;20069;-55
2023/12/29 16:43:44;;;;;;;2.45;0.38;;;;;;;12.69;92.92;99843.56;8304212;28;20077;-58
2023/12/29 16:47:45;;;;;;;2.90;0.75;;;;;;;12.73;92.66;99847.63;8300554;28;20045;-55
2023/12/29 16:51:45;;;;;;;0.93;0.35;;;;;;;12.74;92.68;99841.19;8312767;28;20261;-54
2023/12/29 16:55:46;;;;;;;0.20;0.20;;;;;;;12.73;92.89;99848.50;8298557;28;20708;-55
2023/12/29 16:59:47;;;;;;;1.38;0.20;;;;;;;12.75;93.03;99851.03;8301803;28;20072;-57
2023/12/29 17:03:47;;;;;;;1.65;0.45;;;;;;;12.77;92.59;99832.69;8302397;28;20069;-58
2023/12/29 17:07:48;;;;;;;1.77;0.40;;;;;;;12.74;92.67;99827.63;8312582;28;20226;-53
2023/12/29 17:11:48;;;;;;;1.13;0.30;;;;;;;12.70;92.67;99820.84;8317732;28;20554;-54
2023/12/29 17:15:49;;;;;;;0.70;0.30;;;;;;;12.72;92.88;99830.50;8315634;28;20045;-55
2023/12/29 17:19:50;;;;;;;2.78;0.50;;;;;;;12.68;93.35;99829.16;8302360;28;20525;-55
2023/12/29 17:23:50;;;;;;;1.85;0.30;;;;;;;12.64;92.65;99821.53;8315032;28;20045;-55
2023/12/29 17:27:51;;;;;;;2.33;0.70;;;;;;;12.60;93.10;99822.91;8307473;28;20044;-53
2023/12/29 17:31:52;;;;;;;3.25;0.57;;;;;;;12.59;91.32;99834.78;8313415;28;20082;-55
2023/12/29 17:35:52;;;;;;;3.58;0.50;;;;;;;12.68;90.56;99831.88;8291890;28;20076;-54
2023/12/29 17:39:53;;;;;;;1.80;0.77;;;;;;;12.68;90.28;99839.16;8298863;28;20061;-54
2023/12/29 17:43:53;;;;;;;3.22;0.55;;;;;;;12.66;90.81;99828.47;8300471;28;20049;-55
2023/12/29 17:47:54;;;;;;;3.60;0.60;;;;;;;12.53;91.38;99830.84;8297205;28;20038;-55
2023/12/29 17:51:56;;;;;;;3.72;0.60;;;;;;;12.44;90.71;99833.75;8295494;28;20530;-55
2023/12/29 17:55:57;;;;;;;2.67;0.73;;;;;;;12.51;88.60;99826.63;8293314;28;20034;-56
2023/12/29 17:59:58;;;;;;;4.45;0.70;;;;;;;12.47;88.38;99838.84;8307875;28;20042;-56
2023/12/29 18:03:58;;;;;;;5.65;0.80;;;;;;;12.41;88.22;99837.63;8299339;28;20084;-56
2023/12/29 18:07:59;;;;;;;3.20;0.60;;;;;;;12.31;89.00;99847.78;8296231;28;20573;-54
2023/12/29 18:11:59;;;;;;;3.78;0.50;;;;;;;12.33;88.62;99855.75;8297354;28;20042;-56
2023/12/29 18:16:00;;;;;;;6.90;1.35;;;;;;;12.29;89.30;99854.41;8292340;28;20045;-55
2023/12/29 18:20:01;;;;;;;4.55;1.10;;;;;;;12.16;90.10;99860.31;8297547;28;20068;-56
2023/12/29 18:24:01;;;;;;;3.47;0.82;;;;;;;12.17;89.81;99866.59;8286025;28;20504;-56
2023/12/29 18:28:04;;;;;;;4.55;1.02;;;;;;;12.25;89.48;99869.28;8294421;28;20506;-56
2023/12/29 18:32:05;;;;;;;3.17;0.57;;;;;;;12.30;89.22;99875.94;8296202;28;20124;-56
2023/12/29 18:36:06;;;;;;;1.80;0.50;;;;;;;12.42;88.99;99881.84;8298811;28;20034;-56
2023/12/29 18:40:07;;;;;;;4.15;1.13;;;;;;;12.57;87.77;99885.59;8294797;28;20559;-55
2023/12/29 18:44:08;;;;;;;4.72;1.35;;;;;;;12.52;87.86;99871.69;8300788;28;20128;-57
2023/12/29 18:48:09;;;;;;;4.20;0.70;;;;;;;12.40;88.91;99883.88;8295030;28;20041;-56
2023/12/29 18:52:09;;;;;;;5.05;1.10;;;;;;;12.37;88.39;99892.34;8296330;28;20042;-55
2023/12/29 18:56:10;;;;;;;3.45;0.77;;;;;;;12.34;88.39;99889.97;8303079;28;20551;-55
2023/12/29 19:00:11;;;;;;;3.85;0.70;;;;;;;12.30;88.95;99889.47;8305297;28;20491;-55
2023/12/29 19:04:12;;;;;;;5.40;1.45;;;;;;;12.33;89.09;99885.56;8298710;28;20415;-56